Jamestown, Indiana
Current Conditions -  °F | °C
As of 8:53 AM on Friday 24 Oct 2014 (Local Time) from KEYE Reporting Station
Overcast Overcast  
Wind Chill: 45°   Ceiling: 9500
Heat Index: 45°   Visibility: 9mi
Dew Point: 42°   Wind: 3mph
Humidity: 90%   Direction: 190°S
Pressure: 30.11"   Gusts: NA
Location:  39.93°N, 86.63°W
Report Text: KEYE 241253Z AUTO 19003KT 9SM OVC095 07/06 A3011 RMK AO2 SLP198 T00720056
Loading
Personal Weather Stations






























Interactive Weather Map
Tropical Storm Tracking
New forecast layout! Learn more

10-Day Weather Forecast

Advertisements
Track Severe Weather on mobile